CDC8802 ZGCJ-ZSHC
Flight info
| Callsign | CDC8802 |
|---|---|
| Flight time | 1h 33m |
| Altitude | 33100 |
| Route | P657 H166 ABTUD W227 OMKOB H166 ELNEX |
| Aircraft | A320/M-SDE2E3GHIJ3J4J5LM1ORWXY/LB1D1 |
Departure
| Time | 2026-04-30 02:33 |
|---|---|
| Airport | Huaihua Zhijiang Airport (ZGCJ) |
Arrival
| Time | 2026-04-30 04:06 |
|---|---|
| Airport | Hangzhou Xiaoshan International Airport (ZSHC) |
| Time | Latitude | Longitude | Altitude | Speed | Heading |
|---|---|---|---|---|---|
| 2026-04-30 02:09 | 27.44476 | 109.70207 | 857 ft | 0 kts | 306° |
| 2026-04-30 02:26 | 27.44467 | 109.70220 | 853 ft | 4 kts | 305° |
| 2026-04-30 02:27 | 27.44452 | 109.70245 | 850 ft | 4 kts | 301° |
| 2026-04-30 02:27 | 27.44439 | 109.70271 | 843 ft | 4 kts | 288° |
| 2026-04-30 02:27 | 27.44436 | 109.70298 | 847 ft | 4 kts | 243° |
| 2026-04-30 02:27 | 27.44441 | 109.70307 | 854 ft | 0 kts | 217° |
| 2026-04-30 02:29 | 27.44423 | 109.70292 | 845 ft | 7 kts | 217° |
| 2026-04-30 02:30 | 27.44361 | 109.70241 | 846 ft | 16 kts | 216° |
| 2026-04-30 02:30 | 27.44277 | 109.70207 | 844 ft | 11 kts | 148° |
| 2026-04-30 02:30 | 27.44225 | 109.70282 | 853 ft | 12 kts | 126° |
| 2026-04-30 02:30 | 27.44191 | 109.70327 | 846 ft | 10 kts | 147° |
| 2026-04-30 02:31 | 27.44078 | 109.70258 | 847 ft | 19 kts | 218° |
| 2026-04-30 02:31 | 27.44000 | 109.70190 | 838 ft | 24 kts | 215° |
| 2026-04-30 02:31 | 27.43797 | 109.70024 | 844 ft | 28 kts | 216° |
| 2026-04-30 02:31 | 27.43738 | 109.69953 | 850 ft | 14 kts | 248° |
| 2026-04-30 02:32 | 27.43688 | 109.69919 | 840 ft | 7 kts | 107° |
| 2026-04-30 02:32 | 27.43714 | 109.69954 | 846 ft | 7 kts | 37° |
| 2026-04-30 02:32 | 27.43886 | 109.70097 | 837 ft | 67 kts | 37° |
| 2026-04-30 02:32 | 27.44445 | 109.70566 | 848 ft | 131 kts | 37° |
| 2026-04-30 02:33 | 27.45316 | 109.71293 | 951 ft | 172 kts | 37° |
| 2026-04-30 02:33 | 27.46257 | 109.72080 | 1745 ft | 166 kts | 36° |
| 2026-04-30 02:33 | 27.47178 | 109.72842 | 2549 ft | 164 kts | 37° |
| 2026-04-30 02:33 | 27.48115 | 109.73630 | 3014 ft | 177 kts | 37° |
| 2026-04-30 02:34 | 27.49165 | 109.74520 | 3321 ft | 200 kts | 38° |
| 2026-04-30 02:34 | 27.50276 | 109.75568 | 3750 ft | 214 kts | 41° |
| 2026-04-30 02:34 | 27.51400 | 109.76688 | 4517 ft | 216 kts | 41° |
| 2026-04-30 02:34 | 27.52531 | 109.77826 | 5303 ft | 219 kts | 42° |
| 2026-04-30 02:35 | 27.53671 | 109.78975 | 6103 ft | 221 kts | 42° |
| 2026-04-30 02:35 | 27.54822 | 109.80133 | 6900 ft | 223 kts | 42° |
| 2026-04-30 02:35 | 27.55989 | 109.81300 | 7686 ft | 226 kts | 41° |
| 2026-04-30 02:35 | 27.57172 | 109.82482 | 8435 ft | 229 kts | 42° |
| 2026-04-30 02:36 | 27.58369 | 109.83680 | 9204 ft | 231 kts | 42° |
| 2026-04-30 02:36 | 27.59581 | 109.84891 | 9928 ft | 235 kts | 41° |
| 2026-04-30 02:36 | 27.60814 | 109.86124 | 10635 ft | 239 kts | 41° |
| 2026-04-30 02:36 | 27.62063 | 109.87373 | 11371 ft | 241 kts | 40° |
| 2026-04-30 02:37 | 27.63327 | 109.88634 | 12085 ft | 244 kts | 39° |
| 2026-04-30 02:37 | 27.64614 | 109.89919 | 12728 ft | 250 kts | 38° |
| 2026-04-30 02:37 | 27.65933 | 109.91238 | 13333 ft | 256 kts | 38° |
| 2026-04-30 02:37 | 27.67191 | 109.92726 | 13785 ft | 272 kts | 45° |
| 2026-04-30 02:38 | 27.68497 | 109.94400 | 14021 ft | 296 kts | 45° |
| 2026-04-30 02:38 | 27.69903 | 109.96214 | 14215 ft | 319 kts | 45° |
| 2026-04-30 02:38 | 27.71415 | 109.98171 | 14376 ft | 342 kts | 46° |
| 2026-04-30 02:38 | 27.73029 | 110.00267 | 14498 ft | 364 kts | 46° |
| 2026-04-30 02:39 | 27.74737 | 110.02486 | 14637 ft | 385 kts | 46° |
| 2026-04-30 02:39 | 27.76401 | 110.04944 | 14899 ft | 402 kts | 58° |
| 2026-04-30 02:39 | 27.77444 | 110.07911 | 15422 ft | 413 kts | 75° |
| 2026-04-30 02:39 | 27.77689 | 110.11162 | 15956 ft | 421 kts | 93° |
| 2026-04-30 02:40 | 27.77349 | 110.14466 | 16500 ft | 426 kts | 96° |
| 2026-04-30 02:40 | 27.76965 | 110.17794 | 17032 ft | 430 kts | 97° |
| 2026-04-30 02:40 | 27.76564 | 110.21162 | 17544 ft | 435 kts | 97° |
| 2026-04-30 02:40 | 27.76155 | 110.24561 | 18042 ft | 439 kts | 97° |
| 2026-04-30 02:41 | 27.75741 | 110.27997 | 18537 ft | 444 kts | 96° |
| 2026-04-30 02:41 | 27.75326 | 110.31466 | 18984 ft | 448 kts | 96° |
| 2026-04-30 02:41 | 27.74912 | 110.34966 | 19382 ft | 454 kts | 96° |
| 2026-04-30 02:41 | 27.74493 | 110.38523 | 19786 ft | 459 kts | 97° |
| 2026-04-30 02:42 | 27.74068 | 110.42114 | 20188 ft | 464 kts | 96° |
| 2026-04-30 02:42 | 27.73636 | 110.45745 | 20573 ft | 469 kts | 97° |
| 2026-04-30 02:42 | 27.73195 | 110.49416 | 20958 ft | 474 kts | 97° |
| 2026-04-30 02:42 | 27.72749 | 110.53114 | 21317 ft | 478 kts | 97° |
| 2026-04-30 02:43 | 27.72302 | 110.56853 | 21633 ft | 484 kts | 97° |
| 2026-04-30 02:43 | 27.71847 | 110.60632 | 21961 ft | 488 kts | 96° |
| 2026-04-30 02:43 | 27.71387 | 110.64438 | 22314 ft | 492 kts | 96° |
| 2026-04-30 02:43 | 27.70923 | 110.68277 | 22622 ft | 496 kts | 97° |
| 2026-04-30 02:44 | 27.70452 | 110.72143 | 22942 ft | 500 kts | 97° |
| 2026-04-30 02:44 | 27.69979 | 110.76051 | 23238 ft | 504 kts | 97° |
| 2026-04-30 02:44 | 27.69505 | 110.79979 | 23561 ft | 507 kts | 97° |
| 2026-04-30 02:44 | 27.69026 | 110.83936 | 23819 ft | 512 kts | 97° |
| 2026-04-30 02:45 | 27.68539 | 110.87934 | 24028 ft | 515 kts | 97° |
| 2026-04-30 02:45 | 27.68052 | 110.91949 | 24295 ft | 518 kts | 95° |
| 2026-04-30 02:45 | 27.67858 | 110.96014 | 24587 ft | 519 kts | 86° |
| 2026-04-30 02:45 | 27.68157 | 111.00070 | 24868 ft | 520 kts | 78° |
| 2026-04-30 02:46 | 27.68940 | 111.04037 | 25178 ft | 518 kts | 70° |
| 2026-04-30 02:46 | 27.69904 | 111.07956 | 25449 ft | 520 kts | 70° |
| 2026-04-30 02:46 | 27.70869 | 111.11899 | 25745 ft | 522 kts | 71° |
| 2026-04-30 02:46 | 27.71831 | 111.15865 | 26015 ft | 525 kts | 71° |
| 2026-04-30 02:47 | 27.72794 | 111.19848 | 26243 ft | 528 kts | 71° |
| 2026-04-30 02:47 | 27.73762 | 111.23860 | 26492 ft | 531 kts | 71° |
| 2026-04-30 02:47 | 27.74732 | 111.27888 | 26719 ft | 534 kts | 71° |
| 2026-04-30 02:47 | 27.75705 | 111.31941 | 26967 ft | 536 kts | 71° |
| 2026-04-30 02:48 | 27.76683 | 111.36019 | 27207 ft | 539 kts | 71° |
| 2026-04-30 02:48 | 27.77665 | 111.40110 | 27460 ft | 541 kts | 71° |
| 2026-04-30 02:48 | 27.78654 | 111.44219 | 27711 ft | 544 kts | 71° |
| 2026-04-30 02:48 | 27.79644 | 111.48339 | 28050 ft | 544 kts | 70° |
| 2026-04-30 02:49 | 27.80638 | 111.52466 | 28442 ft | 544 kts | 71° |
| 2026-04-30 02:49 | 27.81667 | 111.56579 | 28774 ft | 544 kts | 70° |
| 2026-04-30 02:49 | 27.82733 | 111.60676 | 29088 ft | 544 kts | 69° |
| 2026-04-30 02:49 | 27.83820 | 111.64760 | 29450 ft | 543 kts | 69° |
| 2026-04-30 02:50 | 27.84911 | 111.68846 | 29752 ft | 543 kts | 69° |
| 2026-04-30 02:50 | 27.85996 | 111.72941 | 30029 ft | 544 kts | 69° |
| 2026-04-30 02:50 | 27.87068 | 111.77038 | 30338 ft | 544 kts | 69° |
| 2026-04-30 02:50 | 27.88133 | 111.81151 | 30641 ft | 545 kts | 70° |
| 2026-04-30 02:51 | 27.89188 | 111.85253 | 30980 ft | 544 kts | 70° |
| 2026-04-30 02:51 | 27.90235 | 111.89349 | 31299 ft | 545 kts | 70° |
| 2026-04-30 02:51 | 27.91286 | 111.93457 | 31625 ft | 545 kts | 70° |
| 2026-04-30 02:51 | 27.92347 | 111.97578 | 31922 ft | 546 kts | 70° |
| 2026-04-30 02:52 | 27.93404 | 112.01687 | 32273 ft | 545 kts | 70° |
| 2026-04-30 02:52 | 27.94464 | 112.05807 | 32612 ft | 544 kts | 70° |
| 2026-04-30 02:52 | 27.95514 | 112.09916 | 32943 ft | 544 kts | 70° |
| 2026-04-30 02:52 | 27.96545 | 112.13969 | 33221 ft | 544 kts | 70° |
| 2026-04-30 02:53 | 27.97596 | 112.18085 | 33302 ft | 546 kts | 70° |
| 2026-04-30 02:53 | 27.98970 | 112.26631 | 33311 ft | 553 kts | 87° |
| 2026-04-30 02:54 | 27.98630 | 112.35264 | 33312 ft | 554 kts | 94° |
| 2026-04-30 02:54 | 27.98105 | 112.43940 | 33320 ft | 553 kts | 94° |
| 2026-04-30 02:55 | 27.97578 | 112.52615 | 33318 ft | 552 kts | 94° |
| 2026-04-30 02:55 | 27.97036 | 112.61279 | 33317 ft | 552 kts | 94° |
| 2026-04-30 02:56 | 27.96495 | 112.69948 | 33314 ft | 552 kts | 94° |
| 2026-04-30 02:56 | 27.95942 | 112.78619 | 33311 ft | 552 kts | 94° |
| 2026-04-30 02:57 | 27.95381 | 112.87280 | 33308 ft | 552 kts | 95° |
| 2026-04-30 02:57 | 27.94949 | 112.95902 | 33301 ft | 552 kts | 88° |
| 2026-04-30 02:58 | 27.95812 | 113.04486 | 33297 ft | 551 kts | 79° |
| 2026-04-30 02:58 | 27.96921 | 113.13039 | 33295 ft | 552 kts | 80° |
| 2026-04-30 02:59 | 27.98020 | 113.21637 | 33296 ft | 553 kts | 80° |
| 2026-04-30 02:59 | 27.99114 | 113.30249 | 33295 ft | 554 kts | 80° |
| 2026-04-30 03:00 | 28.00207 | 113.38883 | 33293 ft | 555 kts | 80° |
| 2026-04-30 03:00 | 28.01293 | 113.47552 | 33293 ft | 557 kts | 80° |
| 2026-04-30 03:01 | 28.02388 | 113.56251 | 33295 ft | 560 kts | 80° |
| 2026-04-30 03:01 | 28.03487 | 113.64975 | 33299 ft | 561 kts | 80° |
| 2026-04-30 03:02 | 28.04573 | 113.73725 | 33298 ft | 562 kts | 80° |
| 2026-04-30 03:02 | 28.05656 | 113.82489 | 33302 ft | 562 kts | 80° |
| 2026-04-30 03:03 | 28.06730 | 113.91279 | 33298 ft | 563 kts | 80° |
| 2026-04-30 03:03 | 28.08332 | 114.04477 | 33298 ft | 564 kts | 80° |
| 2026-04-30 03:04 | 28.09393 | 114.13279 | 33307 ft | 565 kts | 80° |
| 2026-04-30 03:04 | 28.10453 | 114.22091 | 33318 ft | 565 kts | 80° |
| 2026-04-30 03:05 | 28.11513 | 114.30912 | 33318 ft | 565 kts | 80° |
| 2026-04-30 03:05 | 28.12604 | 114.39723 | 33321 ft | 564 kts | 79° |
| 2026-04-30 03:06 | 28.13871 | 114.48458 | 33341 ft | 560 kts | 78° |
| 2026-04-30 03:06 | 28.15194 | 114.57137 | 33340 ft | 558 kts | 78° |
| 2026-04-30 03:07 | 28.16453 | 114.65809 | 33337 ft | 557 kts | 79° |
| 2026-04-30 03:07 | 28.17661 | 114.74453 | 33330 ft | 555 kts | 79° |
| 2026-04-30 03:08 | 28.18867 | 114.83102 | 33324 ft | 555 kts | 79° |
| 2026-04-30 03:08 | 28.20075 | 114.91731 | 33312 ft | 556 kts | 79° |
| 2026-04-30 03:09 | 28.21291 | 115.00380 | 33307 ft | 556 kts | 79° |
| 2026-04-30 03:09 | 28.22500 | 115.09032 | 33306 ft | 556 kts | 80° |
| 2026-04-30 03:10 | 28.23699 | 115.17705 | 33305 ft | 557 kts | 80° |
| 2026-04-30 03:10 | 28.24882 | 115.26375 | 33302 ft | 556 kts | 81° |
| 2026-04-30 03:11 | 28.26061 | 115.35046 | 33301 ft | 556 kts | 81° |
| 2026-04-30 03:11 | 28.27235 | 115.43718 | 33297 ft | 556 kts | 81° |
| 2026-04-30 03:12 | 28.28408 | 115.52382 | 33292 ft | 556 kts | 81° |
| 2026-04-30 03:12 | 28.29576 | 115.61051 | 33284 ft | 556 kts | 81° |
| 2026-04-30 03:13 | 28.30742 | 115.69718 | 33281 ft | 556 kts | 81° |
| 2026-04-30 03:13 | 28.31911 | 115.78392 | 33280 ft | 556 kts | 81° |
| 2026-04-30 03:14 | 28.32875 | 115.85609 | 33282 ft | 556 kts | 81° |
| 2026-04-30 03:14 | 28.34578 | 115.94162 | 33285 ft | 556 kts | 74° |
| 2026-04-30 03:15 | 28.36857 | 116.02521 | 33286 ft | 553 kts | 64° |
| 2026-04-30 03:15 | 28.39826 | 116.10577 | 33284 ft | 553 kts | 65° |
| 2026-04-30 03:16 | 28.42779 | 116.18649 | 33282 ft | 554 kts | 65° |
| 2026-04-30 03:16 | 28.45720 | 116.26752 | 33281 ft | 555 kts | 65° |
| 2026-04-30 03:17 | 28.48661 | 116.34864 | 33285 ft | 555 kts | 65° |
| 2026-04-30 03:17 | 28.51602 | 116.42982 | 33279 ft | 556 kts | 65° |
| 2026-04-30 03:18 | 28.54540 | 116.51123 | 33282 ft | 556 kts | 65° |
| 2026-04-30 03:18 | 28.57472 | 116.59280 | 33281 ft | 557 kts | 65° |
| 2026-04-30 03:19 | 28.60419 | 116.67440 | 33283 ft | 558 kts | 65° |
| 2026-04-30 03:19 | 28.63368 | 116.75613 | 33278 ft | 559 kts | 65° |
| 2026-04-30 03:20 | 28.66300 | 116.83806 | 33282 ft | 559 kts | 65° |
| 2026-04-30 03:20 | 28.69224 | 116.92009 | 33278 ft | 559 kts | 66° |
| 2026-04-30 03:21 | 28.72153 | 117.00227 | 33273 ft | 560 kts | 66° |
| 2026-04-30 03:21 | 28.75085 | 117.08448 | 33272 ft | 560 kts | 66° |
| 2026-04-30 03:22 | 28.78017 | 117.16683 | 33275 ft | 561 kts | 66° |
| 2026-04-30 03:22 | 28.80941 | 117.24926 | 33269 ft | 561 kts | 66° |
| 2026-04-30 03:23 | 28.83854 | 117.33200 | 33272 ft | 562 kts | 66° |
| 2026-04-30 03:23 | 28.86817 | 117.41457 | 33276 ft | 562 kts | 65° |
| 2026-04-30 03:24 | 28.89835 | 117.49684 | 33267 ft | 562 kts | 65° |
| 2026-04-30 03:24 | 28.92845 | 117.57920 | 33265 ft | 562 kts | 66° |
| 2026-04-30 03:25 | 28.95828 | 117.66187 | 33269 ft | 563 kts | 66° |
| 2026-04-30 03:25 | 28.98799 | 117.74467 | 33269 ft | 564 kts | 66° |
| 2026-04-30 03:26 | 29.01775 | 117.82750 | 33266 ft | 564 kts | 66° |
| 2026-04-30 03:26 | 29.04750 | 117.91046 | 33268 ft | 564 kts | 66° |
| 2026-04-30 03:27 | 29.07719 | 117.99357 | 33270 ft | 565 kts | 66° |
| 2026-04-30 03:27 | 29.10688 | 118.07673 | 33266 ft | 565 kts | 66° |
| 2026-04-30 03:28 | 29.13640 | 118.15947 | 33243 ft | 565 kts | 66° |
| 2026-04-30 03:28 | 29.16605 | 118.24291 | 33248 ft | 567 kts | 66° |
| 2026-04-30 03:29 | 29.19571 | 118.32664 | 33265 ft | 569 kts | 66° |
| 2026-04-30 03:29 | 29.22535 | 118.41058 | 33265 ft | 569 kts | 66° |
| 2026-04-30 03:30 | 29.25492 | 118.49455 | 33267 ft | 569 kts | 66° |
| 2026-04-30 03:30 | 29.28461 | 118.57841 | 33270 ft | 568 kts | 66° |
| 2026-04-30 03:31 | 29.31600 | 118.66159 | 33059 ft | 569 kts | 64° |
| 2026-04-30 03:31 | 29.33224 | 118.70287 | 32805 ft | 568 kts | 64° |
| 2026-04-30 03:31 | 29.34857 | 118.74411 | 32553 ft | 568 kts | 63° |
| 2026-04-30 03:32 | 29.36481 | 118.78543 | 32303 ft | 569 kts | 64° |
| 2026-04-30 03:32 | 29.38087 | 118.82689 | 32051 ft | 570 kts | 64° |
| 2026-04-30 03:32 | 29.39674 | 118.86848 | 31799 ft | 570 kts | 64° |
| 2026-04-30 03:32 | 29.41252 | 118.91017 | 31549 ft | 570 kts | 65° |
| 2026-04-30 03:33 | 29.42830 | 118.95194 | 31291 ft | 571 kts | 65° |
| 2026-04-30 03:33 | 29.44412 | 118.99375 | 31050 ft | 572 kts | 65° |
| 2026-04-30 03:33 | 29.45997 | 119.03557 | 30802 ft | 571 kts | 65° |
| 2026-04-30 03:33 | 29.47581 | 119.07734 | 30549 ft | 571 kts | 64° |
| 2026-04-30 03:34 | 29.49165 | 119.11911 | 30295 ft | 571 kts | 65° |
| 2026-04-30 03:34 | 29.50752 | 119.16092 | 30042 ft | 571 kts | 65° |
| 2026-04-30 03:34 | 29.52343 | 119.20277 | 29787 ft | 574 kts | 65° |
| 2026-04-30 03:34 | 29.53938 | 119.24479 | 29536 ft | 574 kts | 65° |
| 2026-04-30 03:35 | 29.55527 | 119.28684 | 29282 ft | 574 kts | 65° |
| 2026-04-30 03:35 | 29.57113 | 119.32890 | 29027 ft | 575 kts | 66° |
| 2026-04-30 03:35 | 29.58699 | 119.37105 | 28771 ft | 575 kts | 65° |
| 2026-04-30 03:35 | 29.60282 | 119.41320 | 28508 ft | 574 kts | 66° |
| 2026-04-30 03:36 | 29.61688 | 119.45607 | 28190 ft | 574 kts | 73° |
| 2026-04-30 03:36 | 29.62648 | 119.50056 | 26898 ft | 576 kts | 82° |
| 2026-04-30 03:36 | 29.63037 | 119.54655 | 25488 ft | 579 kts | 92° |
| 2026-04-30 03:36 | 29.63187 | 119.59262 | 24418 ft | 573 kts | 86° |
| 2026-04-30 03:37 | 29.64013 | 119.63678 | 23099 ft | 559 kts | 72° |
| 2026-04-30 03:37 | 29.65511 | 119.67725 | 21811 ft | 543 kts | 62° |
| 2026-04-30 03:37 | 29.67434 | 119.71376 | 20606 ft | 525 kts | 53° |
| 2026-04-30 03:37 | 29.69612 | 119.74652 | 19634 ft | 504 kts | 48° |
| 2026-04-30 03:38 | 29.71775 | 119.77746 | 18884 ft | 495 kts | 49° |
| 2026-04-30 03:38 | 29.73918 | 119.80834 | 18032 ft | 491 kts | 49° |
| 2026-04-30 03:38 | 29.76040 | 119.83892 | 17304 ft | 485 kts | 49° |
| 2026-04-30 03:38 | 29.78136 | 119.86897 | 16542 ft | 478 kts | 49° |
| 2026-04-30 03:39 | 29.80213 | 119.89862 | 15880 ft | 471 kts | 49° |
| 2026-04-30 03:39 | 29.82256 | 119.92767 | 15156 ft | 464 kts | 49° |
| 2026-04-30 03:39 | 29.84268 | 119.95651 | 14435 ft | 460 kts | 51° |
| 2026-04-30 03:39 | 29.85986 | 119.98734 | 13789 ft | 455 kts | 60° |
| 2026-04-30 03:40 | 29.87496 | 120.01910 | 13103 ft | 450 kts | 60° |
| 2026-04-30 03:40 | 29.88974 | 120.05021 | 12890 ft | 432 kts | 60° |
| 2026-04-30 03:40 | 29.90385 | 120.07996 | 12748 ft | 412 kts | 60° |
| 2026-04-30 03:40 | 29.91706 | 120.10790 | 12598 ft | 382 kts | 60° |
| 2026-04-30 03:41 | 29.92932 | 120.13380 | 12468 ft | 354 kts | 59° |
| 2026-04-30 03:41 | 29.94079 | 120.15803 | 12144 ft | 337 kts | 60° |
| 2026-04-30 03:41 | 29.95193 | 120.18154 | 11562 ft | 331 kts | 59° |
| 2026-04-30 03:41 | 29.96284 | 120.20462 | 10981 ft | 325 kts | 59° |
| 2026-04-30 03:42 | 29.97356 | 120.22729 | 10428 ft | 319 kts | 59° |
| 2026-04-30 03:42 | 29.98402 | 120.24945 | 9900 ft | 310 kts | 59° |
| 2026-04-30 03:42 | 29.99416 | 120.27097 | 9680 ft | 302 kts | 59° |
| 2026-04-30 03:42 | 30.00408 | 120.29229 | 9478 ft | 302 kts | 59° |
| 2026-04-30 03:43 | 30.01360 | 120.31341 | 9117 ft | 299 kts | 60° |
| 2026-04-30 03:43 | 30.02318 | 120.33499 | 8770 ft | 296 kts | 60° |
| 2026-04-30 03:43 | 30.03235 | 120.35573 | 8405 ft | 294 kts | 60° |
| 2026-04-30 03:43 | 30.04158 | 120.37661 | 8082 ft | 290 kts | 60° |
| 2026-04-30 03:44 | 30.05075 | 120.39728 | 7703 ft | 288 kts | 60° |
| 2026-04-30 03:44 | 30.05953 | 120.41708 | 7208 ft | 282 kts | 60° |
| 2026-04-30 03:44 | 30.06822 | 120.43669 | 6792 ft | 280 kts | 60° |
| 2026-04-30 03:44 | 30.07706 | 120.45659 | 6403 ft | 278 kts | 60° |
| 2026-04-30 03:45 | 30.08585 | 120.47637 | 6027 ft | 275 kts | 60° |
| 2026-04-30 03:45 | 30.09451 | 120.49585 | 5740 ft | 269 kts | 60° |
| 2026-04-30 03:45 | 30.10283 | 120.51457 | 5665 ft | 255 kts | 60° |
| 2026-04-30 03:45 | 30.11070 | 120.53232 | 5570 ft | 242 kts | 60° |
| 2026-04-30 03:46 | 30.11820 | 120.54921 | 5467 ft | 231 kts | 60° |
| 2026-04-30 03:46 | 30.12541 | 120.56542 | 5370 ft | 225 kts | 60° |
| 2026-04-30 03:46 | 30.13262 | 120.58160 | 5071 ft | 228 kts | 60° |
| 2026-04-30 03:46 | 30.13987 | 120.59796 | 4723 ft | 229 kts | 60° |
| 2026-04-30 03:47 | 30.14716 | 120.61427 | 4387 ft | 228 kts | 57° |
| 2026-04-30 03:47 | 30.15808 | 120.62691 | 4066 ft | 222 kts | 24° |
| 2026-04-30 03:47 | 30.17273 | 120.63007 | 3742 ft | 213 kts | 350° |
| 2026-04-30 03:47 | 30.18619 | 120.62427 | 3445 ft | 204 kts | 333° |
| 2026-04-30 03:48 | 30.19865 | 120.61691 | 3177 ft | 197 kts | 332° |
| 2026-04-30 03:48 | 30.21053 | 120.60991 | 3146 ft | 191 kts | 332° |
| 2026-04-30 03:48 | 30.22229 | 120.60299 | 3048 ft | 189 kts | 332° |
| 2026-04-30 03:48 | 30.23400 | 120.59610 | 2905 ft | 190 kts | 332° |
| 2026-04-30 03:49 | 30.24559 | 120.58930 | 2660 ft | 182 kts | 332° |
| 2026-04-30 03:49 | 30.25648 | 120.58288 | 2437 ft | 170 kts | 330° |
| 2026-04-30 03:49 | 30.26543 | 120.57477 | 2241 ft | 159 kts | 313° |
| 2026-04-30 03:49 | 30.27136 | 120.56457 | 2068 ft | 148 kts | 296° |
| 2026-04-30 03:50 | 30.27440 | 120.55335 | 1894 ft | 152 kts | 281° |
| 2026-04-30 03:50 | 30.27453 | 120.54087 | 1713 ft | 158 kts | 264° |
| 2026-04-30 03:50 | 30.27144 | 120.52907 | 1520 ft | 151 kts | 247° |
| 2026-04-30 03:50 | 30.26674 | 120.51855 | 1348 ft | 142 kts | 245° |
| 2026-04-30 03:51 | 30.26227 | 120.50850 | 1148 ft | 139 kts | 246° |
| 2026-04-30 03:51 | 30.25792 | 120.49870 | 963 ft | 137 kts | 245° |
| 2026-04-30 03:51 | 30.25342 | 120.48901 | 795 ft | 137 kts | 244° |
| 2026-04-30 03:51 | 30.24892 | 120.47933 | 590 ft | 136 kts | 247° |
| 2026-04-30 03:52 | 30.24495 | 120.46958 | 418 ft | 136 kts | 246° |
| 2026-04-30 03:52 | 30.24066 | 120.45970 | 231 ft | 135 kts | 245° |
| 2026-04-30 03:52 | 30.23648 | 120.45016 | 52 ft | 135 kts | 245° |
| 2026-04-30 03:52 | 30.23244 | 120.44086 | 118 ft | 138 kts | 245° |
| 2026-04-30 03:53 | 30.22759 | 120.43014 | 730 ft | 154 kts | 245° |
| 2026-04-30 03:53 | 30.22269 | 120.41917 | 1612 ft | 153 kts | 245° |
| 2026-04-30 03:53 | 30.21769 | 120.40783 | 2109 ft | 167 kts | 246° |
| 2026-04-30 03:53 | 30.21192 | 120.39507 | 2425 ft | 188 kts | 242° |
| 2026-04-30 03:54 | 30.20368 | 120.38212 | 2748 ft | 211 kts | 230° |
| 2026-04-30 03:54 | 30.19263 | 120.37054 | 3380 ft | 218 kts | 218° |
| 2026-04-30 03:54 | 30.17984 | 120.36080 | 4062 ft | 221 kts | 215° |
| 2026-04-30 03:54 | 30.16683 | 120.35116 | 4705 ft | 226 kts | 215° |
| 2026-04-30 03:55 | 30.15353 | 120.34128 | 4875 ft | 227 kts | 215° |
| 2026-04-30 03:55 | 30.14028 | 120.33146 | 4918 ft | 226 kts | 213° |
| 2026-04-30 03:55 | 30.12584 | 120.32423 | 4913 ft | 228 kts | 197° |
| 2026-04-30 03:55 | 30.11007 | 120.32184 | 4915 ft | 230 kts | 180° |
| 2026-04-30 03:56 | 30.09426 | 120.32463 | 4906 ft | 231 kts | 163° |
| 2026-04-30 03:56 | 30.07973 | 120.33239 | 4914 ft | 231 kts | 146° |
| 2026-04-30 03:56 | 30.06764 | 120.34456 | 4903 ft | 231 kts | 129° |
| 2026-04-30 03:56 | 30.05902 | 120.36001 | 4915 ft | 230 kts | 112° |
| 2026-04-30 03:57 | 30.05439 | 120.37751 | 4909 ft | 227 kts | 96° |
| 2026-04-30 03:57 | 30.05404 | 120.39560 | 4909 ft | 225 kts | 80° |
| 2026-04-30 03:57 | 30.05792 | 120.41296 | 4910 ft | 222 kts | 64° |
| 2026-04-30 03:57 | 30.06479 | 120.42886 | 4915 ft | 221 kts | 59° |
| 2026-04-30 03:58 | 30.07184 | 120.44463 | 4912 ft | 221 kts | 60° |
| 2026-04-30 03:58 | 30.07891 | 120.46045 | 4912 ft | 221 kts | 60° |
| 2026-04-30 03:58 | 30.08594 | 120.47626 | 4912 ft | 221 kts | 60° |
| 2026-04-30 03:58 | 30.09296 | 120.49206 | 4902 ft | 221 kts | 60° |
| 2026-04-30 03:59 | 30.09997 | 120.50788 | 4903 ft | 218 kts | 60° |
| 2026-04-30 03:59 | 30.10662 | 120.52298 | 4828 ft | 208 kts | 60° |
| 2026-04-30 03:59 | 30.11103 | 120.53291 | 4494 ft | 213 kts | 59° |
| 2026-04-30 03:59 | 30.12031 | 120.55379 | 3715 ft | 225 kts | 60° |
| 2026-04-30 04:00 | 30.12517 | 120.56471 | 3295 ft | 235 kts | 60° |
| 2026-04-30 04:00 | 30.13521 | 120.58739 | 2974 ft | 231 kts | 60° |
| 2026-04-30 04:00 | 30.13992 | 120.59808 | 2994 ft | 220 kts | 60° |
| 2026-04-30 04:00 | 30.14682 | 120.61326 | 3002 ft | 207 kts | 53° |
| 2026-04-30 04:01 | 30.15683 | 120.62434 | 3007 ft | 197 kts | 26° |
| 2026-04-30 04:01 | 30.16958 | 120.62876 | 3009 ft | 191 kts | 0° |
| 2026-04-30 04:01 | 30.18247 | 120.62626 | 3011 ft | 189 kts | 336° |
| 2026-04-30 04:01 | 30.19420 | 120.61944 | 3010 ft | 189 kts | 332° |
| 2026-04-30 04:02 | 30.20593 | 120.61254 | 3006 ft | 189 kts | 332° |
| 2026-04-30 04:02 | 30.22142 | 120.60344 | 3012 ft | 189 kts | 333° |
| 2026-04-30 04:02 | 30.22934 | 120.59881 | 3010 ft | 189 kts | 332° |
| 2026-04-30 04:02 | 30.24108 | 120.59192 | 2874 ft | 191 kts | 333° |
| 2026-04-30 04:03 | 30.25339 | 120.58471 | 2354 ft | 205 kts | 333° |
| 2026-04-30 04:03 | 30.26524 | 120.57516 | 1801 ft | 218 kts | 313° |
| 2026-04-30 04:03 | 30.27291 | 120.56015 | 1516 ft | 212 kts | 288° |
| 2026-04-30 04:03 | 30.27468 | 120.54419 | 1498 ft | 191 kts | 267° |
| 2026-04-30 04:04 | 30.27168 | 120.52973 | 1503 ft | 183 kts | 248° |
| 2026-04-30 04:04 | 30.26614 | 120.51725 | 1456 ft | 166 kts | 245° |
| 2026-04-30 04:04 | 30.26090 | 120.50582 | 1227 ft | 157 kts | 245° |
| 2026-04-30 04:04 | 30.25607 | 120.49480 | 966 ft | 148 kts | 246° |
| 2026-04-30 04:05 | 30.25151 | 120.48453 | 700 ft | 140 kts | 245° |
| 2026-04-30 04:05 | 30.24712 | 120.47466 | 473 ft | 137 kts | 245° |
| 2026-04-30 04:05 | 30.24277 | 120.46504 | 301 ft | 135 kts | 245° |
| 2026-04-30 04:05 | 30.23869 | 120.45529 | 146 ft | 134 kts | 245° |
| 2026-04-30 04:06 | 30.23453 | 120.44581 | 35 ft | 126 kts | 245° |
| 2026-04-30 04:06 | 30.23127 | 120.43835 | 32 ft | 79 kts | 243° |
| 2026-04-30 04:06 | 30.23078 | 120.43724 | 34 ft | 69 kts | 243° |
| 2026-04-30 04:06 | 30.22943 | 120.43411 | 35 ft | 44 kts | 243° |
| 2026-04-30 04:07 | 30.22876 | 120.43143 | 33 ft | 30 kts | 267° |
| 2026-04-30 04:07 | 30.22906 | 120.42973 | 31 ft | 17 kts | 325° |
| 2026-04-30 04:07 | 30.23013 | 120.42951 | 32 ft | 16 kts | 46° |
| 2026-04-30 04:08 | 30.23148 | 120.43243 | 31 ft | 24 kts | 63° |
| 2026-04-30 04:08 | 30.23230 | 120.43425 | 31 ft | 27 kts | 63° |
| 2026-04-30 04:08 | 30.23317 | 120.43624 | 32 ft | 29 kts | 62° |
| 2026-04-30 04:08 | 30.23400 | 120.43809 | 31 ft | 24 kts | 63° |
| 2026-04-30 04:09 | 30.23468 | 120.43946 | 32 ft | 12 kts | 32° |
| 2026-04-30 04:09 | 30.23549 | 120.43922 | 32 ft | 13 kts | 333° |
| 2026-04-30 04:09 | 30.23640 | 120.43868 | 32 ft | 16 kts | 333° |
| 2026-04-30 04:09 | 30.23746 | 120.43806 | 32 ft | 18 kts | 333° |
| 2026-04-30 04:10 | 30.23867 | 120.43735 | 32 ft | 21 kts | 333° |
| 2026-04-30 04:10 | 30.24003 | 120.43656 | 31 ft | 23 kts | 334° |
| 2026-04-30 04:10 | 30.24149 | 120.43572 | 31 ft | 24 kts | 332° |
| 2026-04-30 04:10 | 30.24178 | 120.43475 | 32 ft | 15 kts | 244° |
| 2026-04-30 04:11 | 30.24130 | 120.43364 | 32 ft | 16 kts | 243° |
| 2026-04-30 04:11 | 30.24089 | 120.43321 | 32 ft | 6 kts | 175° |
| 2026-04-30 04:11 | 30.24053 | 120.43342 | 31 ft | 5 kts | 152° |
| 2026-04-30 04:11 | 30.24038 | 120.43351 | 32 ft | 1 kts | 152° |
| 2026-04-30 04:12 | 30.24037 | 120.43352 | 32 ft | 0 kts | 152° |